Time;durP1;ratioP1;P1;durP2;ratioP2;P2;SDS_P1;SDS_P2;PMS_P1;PMS_P2;Temp;Humidity;BMP_temperature;BMP_pressure;BME280_temperature;BME280_humidity;BME280_pressure;Samples;Min_cycle;Max_cycle;Signal;HPM_P1;HPM_P2
2021/03/18 00:01:20;;;;;;;35.53;15.65;;;6.10;71.10;;;;;;5024792;28;20452;-72
2021/03/18 00:03:49;;;;;;;31.08;14.98;;;6.10;71.10;;;;;;5024812;28;20025;-71
2021/03/18 00:06:15;;;;;;;31.48;14.80;;;6.10;71.10;;;;;;5028099;28;20027;-72
2021/03/18 00:08:43;;;;;;;30.98;15.55;;;6.10;71.10;;;;;;5035159;28;20436;-71
2021/03/18 00:11:11;;;;;;;38.58;17.10;;;6.10;71.10;;;;;;5036272;28;20041;-71
2021/03/18 00:13:42;;;;;;;35.38;16.77;;;6.10;71.00;;;;;;5036272;28;20095;-71
2021/03/18 00:16:08;;;;;;;36.55;16.17;;;6.00;71.00;;;;;;5035893;28;20485;-71
2021/03/18 00:18:43;;;;;;;32.00;14.93;;;6.00;71.10;;;;;;5036241;28;20104;-71
2021/03/18 00:21:09;;;;;;;33.53;15.13;;;6.00;71.20;;;;;;5036172;28;20379;-71
2021/03/18 00:23:35;;;;;;;30.30;14.90;;;6.00;71.10;;;;;;5036155;28;20033;-71
2021/03/18 00:26:02;;;;;;;33.72;15.48;;;6.00;71.10;;;;;;5036017;28;20048;-71
2021/03/18 00:28:28;;;;;;;38.55;16.92;;;6.00;71.20;;;;;;5036117;28;20040;-71
2021/03/18 00:30:54;;;;;;;29.80;15.73;;;6.00;71.10;;;;;;5035809;28;20080;-71
2021/03/18 00:33:20;;;;;;;30.88;15.30;;;5.90;71.10;;;;;;5035566;28;20032;-71
2021/03/18 00:35:46;;;;;;;31.13;15.93;;;5.90;71.30;;;;;;5034633;28;20040;-72
2021/03/18 00:38:12;;;;;;;30.73;14.80;;;5.90;71.40;;;;;;5035857;28;20021;-71
2021/03/18 00:40:44;;;;;;;33.58;16.25;;;6.00;71.50;;;;;;5035771;28;20026;-71
2021/03/18 00:43:13;;;;;;;30.45;15.32;;;6.00;71.40;;;;;;5035771;28;20029;-71
2021/03/18 00:45:43;;;;;;;32.33;14.88;;;6.00;71.40;;;;;;5034348;28;20038;-72
2021/03/18 00:48:10;;;;;;;32.75;15.40;;;6.00;71.30;;;;;;5034395;28;20529;-72
2021/03/18 00:51:06;;;;;;;27.55;15.02;;;6.00;71.30;;;;;;5035369;28;20022;-71
2021/03/18 00:53:38;;;;;;;29.60;14.88;;;6.00;71.40;;;;;;5033381;28;20091;-72
2021/03/18 00:56:08;;;;;;;30.85;15.15;;;6.00;71.30;;;;;;5035503;28;20116;-72
2021/03/18 00:58:34;;;;;;;32.50;15.68;;;6.00;71.90;;;;;;5035641;28;20049;-71
2021/03/18 01:01:02;;;;;;;36.53;16.70;;;6.00;71.40;;;;;;5035432;28;20029;-72
2021/03/18 01:03:31;;;;;;;39.17;16.15;;;6.10;71.50;;;;;;5035125;28;20089;-72
2021/03/18 01:06:25;;;;;;;37.90;17.63;;;6.10;71.30;;;;;;5035582;28;20021;-71
2021/03/18 01:08:52;;;;;;;31.15;17.05;;;6.10;71.20;;;;;;5024987;28;20034;-72
2021/03/18 01:11:27;;;;;;;35.60;16.25;;;6.10;71.40;;;;;;5015292;28;20034;-72
2021/03/18 01:13:57;;;;;;;44.10;16.80;;;6.10;71.40;;;;;;5015377;28;20034;-72
2021/03/18 01:16:26;;;;;;;38.13;16.67;;;6.10;71.20;;;;;;5015008;28;20479;-72
2021/03/18 01:18:59;;;;;;;36.33;16.90;;;6.10;71.10;;;;;;5010986;28;20474;-72
2021/03/18 01:21:30;;;;;;;41.40;17.50;;;6.10;71.20;;;;;;4996289;28;20049;-71
2021/03/18 01:23:55;;;;;;;40.60;18.67;;;6.10;71.20;;;;;;4996009;28;20067;-71
2021/03/18 01:26:21;;;;;;;37.78;18.13;;;6.10;71.00;;;;;;4996273;28;20134;-71
2021/03/18 01:28:47;;;;;;;44.90;18.13;;;6.10;71.10;;;;;;5015178;28;20482;-71
2021/03/18 01:31:13;;;;;;;39.33;18.60;;;6.10;71.20;;;;;;5014758;28;20029;-72
2021/03/18 01:33:41;;;;;;;37.67;18.55;;;6.10;71.20;;;;;;5014833;28;20113;-71
2021/03/18 01:36:08;;;;;;;42.45;19.17;;;6.10;71.30;;;;;;5014927;28;20141;-72
2021/03/18 01:38:35;;;;;;;42.17;20.08;;;6.10;71.10;;;;;;5014525;28;20105;-72
2021/03/18 01:41:03;;;;;;;38.92;19.67;;;6.10;71.10;;;;;;5014846;28;20030;-75
2021/03/18 01:43:29;;;;;;;40.80;18.02;;;6.00;71.10;;;;;;5014989;28;20081;-71
2021/03/18 01:45:55;;;;;;;38.97;19.10;;;6.00;71.00;;;;;;5014928;28;20026;-72
2021/03/18 01:48:21;;;;;;;39.17;19.23;;;6.00;71.00;;;;;;5015092;28;20479;-72
2021/03/18 01:50:47;;;;;;;36.38;18.63;;;6.00;71.10;;;;;;5014836;28;20510;-72
2021/03/18 01:53:14;;;;;;;37.75;19.20;;;6.00;71.20;;;;;;5013252;28;20038;-73
2021/03/18 01:55:43;;;;;;;36.55;17.60;;;6.00;71.10;;;;;;5014783;28;20034;-72
2021/03/18 01:58:10;;;;;;;35.58;18.98;;;6.00;71.10;;;;;;5014547;28;20056;-72
2021/03/18 02:00:38;;;;;;;32.55;18.30;;;6.00;71.10;;;;;;5013315;28;20040;-72
2021/03/18 02:03:04;;;;;;;38.88;20.55;;;6.00;71.10;;;;;;5014184;28;20519;-72
2021/03/18 02:05:30;;;;;;;35.05;18.73;;;6.00;71.10;;;;;;5014439;28;20133;-72
2021/03/18 02:07:57;;;;;;;31.38;18.60;;;5.90;71.10;;;;;;5014548;28;20025;-72
2021/03/18 02:10:28;;;;;;;36.92;19.90;;;6.00;71.20;;;;;;5014273;28;20038;-72
2021/03/18 02:12:55;;;;;;;35.50;19.73;;;5.90;71.30;;;;;;5013260;28;20487;-72
2021/03/18 02:15:31;;;;;;;41.25;20.67;;;6.00;71.20;;;;;;5014497;28;20022;-72
2021/03/18 02:18:18;;;;;;;36.90;20.00;;;5.90;71.10;;;;;;5014413;28;20057;-72
2021/03/18 02:21:05;;;;;;;39.55;22.25;;;5.90;71.10;;;;;;5013856;28;20476;-72
2021/03/18 02:23:49;;;;;;;33.50;20.20;;;5.90;70.90;;;;;;5014308;28;20037;-72
2021/03/18 02:26:42;;;;;;;35.85;20.15;;;5.80;70.80;;;;;;5014193;28;20099;-72
2021/03/18 02:29:26;;;;;;;39.65;22.75;;;5.80;71.00;;;;;;5014276;28;20041;-72
2021/03/18 02:32:00;;;;;;;39.35;21.33;;;5.70;71.10;;;;;;4994133;28;20164;-72
2021/03/18 02:35:04;;;;;;;40.55;22.17;;;5.80;71.20;;;;;;4994153;28;20034;-72
2021/03/18 02:37:31;;;;;;;41.30;23.13;;;5.70;71.10;;;;;;4994610;28;20093;-72
2021/03/18 02:40:03;;;;;;;50.20;24.50;;;5.70;71.10;;;;;;4993063;28;20034;-72
2021/03/18 02:42:33;;;;;;;50.17;23.95;;;5.70;71.20;;;;;;4994037;28;20420;-72
2021/03/18 02:45:01;;;;;;;43.53;23.98;;;5.60;71.30;;;;;;4994305;28;20068;-72
2021/03/18 02:47:30;;;;;;;56.13;24.67;;;5.60;71.40;;;;;;4994117;28;20031;-72
2021/03/18 02:49:58;;;;;;;50.72;25.27;;;5.60;71.40;;;;;;4993764;28;20468;-72
2021/03/18 02:52:25;;;;;;;52.38;26.05;;;5.60;71.50;;;;;;4992714;28;20109;-72
2021/03/18 02:54:57;;;;;;;47.97;25.73;;;5.60;71.70;;;;;;4994179;28;20034;-72
2021/03/18 02:57:25;;;;;;;49.13;25.92;;;5.60;71.90;;;;;;4994039;28;20082;-72
2021/03/18 02:59:53;;;;;;;55.75;27.27;;;5.60;72.00;;;;;;4994218;28;20494;-72
2021/03/18 03:02:22;;;;;;;59.13;26.58;;;5.70;71.90;;;;;;4993666;28;20473;-72
2021/03/18 03:04:51;;;;;;;52.22;27.05;;;5.70;71.90;;;;;;4993700;28;20488;-72
2021/03/18 03:07:18;;;;;;;55.33;26.80;;;5.70;71.90;;;;;;4993768;28;20070;-72
2021/03/18 03:09:46;;;;;;;60.13;27.55;;;5.70;71.90;;;;;;4993416;28;20038;-72
2021/03/18 03:12:14;;;;;;;55.60;27.92;;;5.80;71.90;;;;;;4994196;28;20034;-72
2021/03/18 03:14:44;;;;;;;63.17;27.50;;;5.80;71.90;;;;;;4993796;28;20050;-72
2021/03/18 03:17:11;;;;;;;61.47;27.27;;;5.80;72.40;;;;;;4993716;28;20089;-72
2021/03/18 03:19:40;;;;;;;66.18;28.30;;;5.80;71.70;;;;;;4993510;28;20026;-72
2021/03/18 03:22:07;;;;;;;63.42;28.67;;;5.80;71.60;;;;;;4993774;28;20022;-72
2021/03/18 03:24:35;;;;;;;57.17;28.48;;;5.80;71.60;;;;;;4993703;28;20056;-72
2021/03/18 03:27:01;;;;;;;71.43;28.75;;;5.80;71.70;;;;;;4993285;28;20554;-72
2021/03/18 03:29:28;;;;;;;66.90;27.73;;;5.80;71.70;;;;;;4993228;28;20026;-72
2021/03/18 03:31:54;;;;;;;79.93;29.92;;;5.80;71.40;;;;;;4993343;28;20026;-72
2021/03/18 03:34:20;;;;;;;75.95;28.80;;;5.80;71.50;;;;;;4993561;28;20041;-72
2021/03/18 03:36:47;;;;;;;80.82;30.23;;;5.80;71.70;;;;;;4993668;28;20371;-72
2021/03/18 03:39:13;;;;;;;70.53;28.80;;;5.80;71.70;;;;;;4994124;28;20096;-72
2021/03/18 03:41:39;;;;;;;76.18;28.45;;;5.90;71.70;;;;;;4993309;28;20022;-72
2021/03/18 03:44:06;;;;;;;70.40;28.02;;;5.90;71.70;;;;;;4993464;28;20447;-72
2021/03/18 03:46:33;;;;;;;72.60;29.27;;;5.90;71.50;;;;;;4993202;28;20435;-72
2021/03/18 03:48:59;;;;;;;82.53;30.38;;;5.90;71.30;;;;;;4993490;28;20117;-72
2021/03/18 03:51:32;;;;;;;82.35;29.45;;;5.90;71.40;;;;;;4993618;28;20464;-72
2021/03/18 03:54:01;;;;;;;66.55;27.05;;;5.90;71.40;;;;;;4993315;28;20061;-72
2021/03/18 03:56:46;;;;;;;89.47;28.65;;;5.90;71.40;;;;;;4993328;28;20027;-72
2021/03/18 03:59:20;;;;;;;76.03;28.10;;;6.00;71.40;;;;;;4993560;28;20069;-73
2021/03/18 04:01:57;;;;;;;90.35;28.55;;;6.00;71.30;;;;;;4993030;28;20073;-71
2021/03/18 04:04:34;;;;;;;89.90;27.13;;;6.00;71.30;;;;;;4991983;28;20045;-71
2021/03/18 04:07:03;;;;;;;86.20;29.35;;;6.00;71.30;;;;;;4993281;28;20027;-71
2021/03/18 04:09:30;;;;;;;83.32;27.00;;;6.00;71.10;;;;;;4992986;28;20066;-72
2021/03/18 04:11:57;;;;;;;89.15;28.63;;;6.00;71.10;;;;;;4993248;28;20054;-72
2021/03/18 04:14:28;;;;;;;84.90;28.83;;;6.00;71.00;;;;;;4993207;28;20045;-72
2021/03/18 04:16:58;;;;;;;95.43;29.05;;;6.00;71.10;;;;;;4993244;28;20038;-72
2021/03/18 04:19:25;;;;;;;88.78;28.58;;;6.00;71.20;;;;;;4993156;28;20396;-72
2021/03/18 04:21:52;;;;;;;89.72;28.70;;;6.00;71.20;;;;;;4996892;28;20030;-72
2021/03/18 04:24:19;;;;;;;86.22;28.98;;;6.00;71.10;;;;;;4996577;28;20514;-72
2021/03/18 04:26:46;;;;;;;92.25;29.58;;;6.00;70.90;;;;;;4996893;28;20026;-72
2021/03/18 04:29:14;;;;;;;103.55;28.65;;;6.00;71.00;;;;;;4996616;28;20026;-73
2021/03/18 04:31:41;;;;;;;99.13;28.25;;;6.00;71.00;;;;;;4996522;28;20053;-72
2021/03/18 04:34:08;;;;;;;99.15;29.58;;;6.00;71.10;;;;;;4996225;28;20592;-71
2021/03/18 04:36:36;;;;;;;104.60;29.75;;;6.10;71.10;;;;;;4995167;28;20026;-72
2021/03/18 04:39:04;;;;;;;87.50;28.00;;;6.10;70.80;;;;;;4996192;28;20109;-71
2021/03/18 04:41:31;;;;;;;104.60;30.15;;;6.10;70.80;;;;;;4996060;28;20473;-72
2021/03/18 04:43:58;;;;;;;98.80;28.92;;;6.10;70.90;;;;;;4996483;28;20033;-72
2021/03/18 04:46:25;;;;;;;87.35;26.63;;;6.00;70.80;;;;;;4996360;28;20026;-71
2021/03/18 04:48:53;;;;;;;91.53;26.45;;;6.10;70.70;;;;;;5024493;28;20034;-74
2021/03/18 04:51:19;;;;;;;88.70;26.60;;;6.00;70.70;;;;;;5022884;28;20104;-71
2021/03/18 04:53:45;;;;;;;96.18;25.70;;;6.00;70.70;;;;;;5024208;28;20034;-73
2021/03/18 04:56:11;;;;;;;86.80;25.98;;;6.00;70.80;;;;;;5023296;28;20048;-73
2021/03/18 04:58:39;;;;;;;73.45;23.60;;;6.10;70.80;;;;;;5024836;28;20060;-72
2021/03/18 05:01:06;;;;;;;99.28;24.45;;;6.00;70.70;;;;;;5024209;28;20026;-72
2021/03/18 05:03:35;;;;;;;90.47;24.77;;;6.10;70.90;;;;;;5022952;28;20021;-72
2021/03/18 05:06:06;;;;;;;87.85;25.88;;;6.10;70.70;;;;;;5053265;28;20057;-74
2021/03/18 05:08:33;;;;;;;88.63;24.88;;;6.00;70.80;;;;;;5023205;28;20057;-72
2021/03/18 05:10:59;;;;;;;81.50;23.55;;;6.00;70.60;;;;;;5052698;28;20471;-73
2021/03/18 05:13:26;;;;;;;96.22;25.70;;;6.00;70.60;;;;;;5023797;28;20095;-73
2021/03/18 05:15:54;;;;;;;93.45;24.75;;;6.00;70.70;;;;;;5024771;28;20101;-73
2021/03/18 05:18:22;;;;;;;97.57;24.20;;;6.00;70.70;;;;;;5020647;28;20072;-73
2021/03/18 05:20:48;;;;;;;105.15;24.13;;;6.00;70.70;;;;;;5022351;28;20030;-73
2021/03/18 05:23:16;;;;;;;110.80;22.48;;;6.00;70.60;;;;;;5024678;28;20108;-73
2021/03/18 05:25:42;;;;;;;102.07;21.70;;;6.00;70.50;;;;;;5023295;28;20044;-73
2021/03/18 05:28:09;;;;;;;86.38;19.33;;;5.90;70.50;;;;;;5023194;28;20496;-72
2021/03/18 05:30:35;;;;;;;81.47;19.20;;;5.90;70.50;;;;;;5024488;28;20483;-72
2021/03/18 05:33:03;;;;;;;81.30;18.10;;;5.90;70.70;;;;;;5022288;28;20030;-74
2021/03/18 05:35:30;;;;;;;69.82;17.13;;;5.90;71.00;;;;;;5022681;28;20017;-73
2021/03/18 05:37:56;;;;;;;70.80;17.92;;;5.90;70.80;;;;;;5024655;28;20037;-73
2021/03/18 05:40:22;;;;;;;76.68;17.73;;;6.00;71.00;;;;;;5024923;28;20083;-72
2021/03/18 05:42:48;;;;;;;79.20;18.67;;;6.00;70.90;;;;;;5023162;28;20541;-73
2021/03/18 05:45:15;;;;;;;64.80;16.52;;;6.10;70.80;;;;;;5024049;28;20059;-73
2021/03/18 05:47:42;;;;;;;63.85;16.75;;;6.10;70.50;;;;;;5021618;28;20033;-75
2021/03/18 05:50:14;;;;;;;63.90;18.05;;;6.10;70.40;;;;;;5023647;28;20103;-72
2021/03/18 05:52:40;;;;;;;71.18;17.88;;;6.10;70.40;;;;;;5019602;28;20022;-73
2021/03/18 05:55:07;;;;;;;65.63;18.10;;;6.20;70.50;;;;;;5023080;28;20356;-73
2021/03/18 05:57:34;;;;;;;76.55;19.65;;;6.20;70.50;;;;;;5023749;28;20060;-73
2021/03/18 06:00:02;;;;;;;72.13;19.27;;;6.20;70.40;;;;;;5019913;28;20021;-72
2021/03/18 06:02:31;;;;;;;79.00;20.20;;;6.30;70.50;;;;;;5022521;28;20103;-72
2021/03/18 06:04:56;;;;;;;78.50;19.80;;;6.30;70.60;;;;;;5023713;28;20044;-72
2021/03/18 06:07:22;;;;;;;70.03;19.17;;;6.40;70.50;;;;;;5025169;28;20021;-72
2021/03/18 06:09:48;;;;;;;78.40;19.40;;;6.50;70.50;;;;;;5033963;28;20399;-72
2021/03/18 06:12:14;;;;;;;69.80;18.13;;;6.60;70.40;;;;;;5033231;28;20025;-73
2021/03/18 06:14:39;;;;;;;71.82;18.63;;;6.60;70.30;;;;;;5033639;28;20041;-72
2021/03/18 06:17:05;;;;;;;70.15;19.83;;;6.70;70.10;;;;;;5033768;28;20029;-72
2021/03/18 06:19:31;;;;;;;62.17;18.80;;;6.80;70.00;;;;;;5033856;28;20363;-72
2021/03/18 06:21:58;;;;;;;65.65;18.77;;;6.90;69.80;;;;;;5033461;28;20026;-73
2021/03/18 06:24:26;;;;;;;60.50;18.25;;;7.00;69.50;;;;;;5033448;28;20026;-72
2021/03/18 06:26:53;;;;;;;55.42;16.70;;;7.00;69.10;;;;;;5033856;28;20066;-72
2021/03/18 06:29:36;;;;;;;61.08;18.13;;;7.10;69.10;;;;;;5033163;28;20464;-73
2021/03/18 06:32:13;;;;;;;59.25;17.55;;;7.20;68.60;;;;;;5033501;28;20133;-72
2021/03/18 06:34:55;;;;;;;61.45;16.00;;;7.20;68.20;;;;;;5033372;28;20029;-73
2021/03/18 06:37:38;;;;;;;56.90;16.98;;;7.20;67.90;;;;;;5033676;28;20060;-73
2021/03/18 06:40:24;;;;;;;56.65;18.58;;;7.10;67.70;;;;;;5033550;28;20036;-72
2021/03/18 06:43:02;;;;;;;61.38;15.98;;;7.10;67.90;;;;;;5031754;28;20382;-72
2021/03/18 06:45:34;;;;;;;53.70;15.82;;;7.10;68.00;;;;;;5033064;28;20029;-72
2021/03/18 06:48:06;;;;;;;53.90;16.33;;;7.20;68.10;;;;;;5033255;28;20025;-73
2021/03/18 06:50:38;;;;;;;63.13;16.60;;;7.20;67.90;;;;;;5023700;28;20471;-73
2021/03/18 06:53:25;;;;;;;54.83;15.73;;;7.30;67.80;;;;;;5013460;28;20025;-72
2021/03/18 06:55:52;;;;;;;55.72;15.75;;;7.40;67.80;;;;;;5013358;28;20077;-72
2021/03/18 06:58:23;;;;;;;53.45;16.67;;;7.60;67.80;;;;;;5012048;28;20080;-72
2021/03/18 07:00:52;;;;;;;60.58;16.83;;;7.70;67.40;;;;;;5013597;28;20057;-73
2021/03/18 07:03:30;;;;;;;65.05;16.70;;;7.80;67.00;;;;;;5013275;28;20057;-74
2021/03/18 07:05:58;;;;;;;54.70;17.40;;;7.90;66.80;;;;;;5013359;28;20033;-73
2021/03/18 07:08:30;;;;;;;64.90;18.00;;;8.00;66.50;;;;;;5012065;28;20061;-73
2021/03/18 07:10:56;;;;;;;64.72;19.00;;;8.10;66.40;;;;;;5013352;28;20038;-72
2021/03/18 07:13:28;;;;;;;62.53;19.20;;;8.20;66.40;;;;;;5013013;28;20044;-73
2021/03/18 07:15:57;;;;;;;55.03;17.95;;;8.30;66.20;;;;;;5012982;28;20026;-73
2021/03/18 07:18:24;;;;;;;53.15;15.93;;;8.40;66.00;;;;;;5012929;28;20034;-73
2021/03/18 07:20:58;;;;;;;59.92;16.58;;;8.40;65.50;;;;;;5013319;28;20049;-72
2021/03/18 07:23:48;;;;;;;49.03;16.25;;;8.50;65.40;;;;;;5013035;28;20037;-72
2021/03/18 07:26:22;;;;;;;58.08;16.60;;;8.60;65.50;;;;;;5007597;28;20030;-72
2021/03/18 07:28:50;;;;;;;60.67;17.70;;;8.60;65.10;;;;;;5012893;28;20377;-72
2021/03/18 07:31:19;;;;;;;58.22;15.32;;;8.70;64.90;;;;;;5011620;28;20125;-72
2021/03/18 07:33:46;;;;;;;62.47;16.50;;;8.70;64.50;;;;;;5012602;28;20539;-71
2021/03/18 07:36:13;;;;;;;67.15;16.25;;;8.70;64.40;;;;;;5013321;28;20026;-72
2021/03/18 07:38:40;;;;;;;57.97;16.08;;;8.70;64.10;;;;;;5012727;28;20076;-72
2021/03/18 07:41:14;;;;;;;56.95;15.38;;;8.80;64.00;;;;;;5012643;28;20029;-73
2021/03/18 07:43:46;;;;;;;65.70;16.60;;;8.80;63.70;;;;;;5011682;28;20026;-72
2021/03/18 07:46:22;;;;;;;58.33;16.23;;;8.80;63.50;;;;;;5013319;28;20117;-73
2021/03/18 07:49:01;;;;;;;61.15;16.52;;;8.70;63.20;;;;;;5012980;28;20563;-73
2021/03/18 07:51:29;;;;;;;60.47;15.88;;;8.70;63.30;;;;;;5017879;28;20029;-74
2021/03/18 07:53:58;;;;;;;57.40;16.63;;;8.70;63.30;;;;;;5020943;28;20022;-74
2021/03/18 07:56:25;;;;;;;66.78;18.25;;;8.80;63.30;;;;;;5023957;28;20025;-72
2021/03/18 07:58:52;;;;;;;73.55;18.77;;;8.80;63.00;;;;;;5021518;28;20058;-72
2021/03/18 08:01:30;;;;;;;61.47;16.98;;;8.80;63.10;;;;;;5024924;28;20053;-72
2021/03/18 08:04:08;;;;;;;72.60;17.40;;;8.90;62.90;;;;;;5023356;28;20041;-73
2021/03/18 08:06:40;;;;;;;55.28;16.92;;;8.90;62.70;;;;;;5022004;28;20037;-74
2021/03/18 08:09:09;;;;;;;60.42;18.70;;;9.00;62.80;;;;;;5024170;28;20034;-73
2021/03/18 08:11:37;;;;;;;60.50;18.40;;;9.10;62.60;;;;;;5025224;28;20026;-73
2021/03/18 08:14:10;;;;;;;61.13;16.38;;;9.20;62.20;;;;;;5025760;28;20044;-71
2021/03/18 08:16:36;;;;;;;63.38;17.67;;;9.30;61.80;;;;;;5022827;28;20034;-73
2021/03/18 08:19:04;;;;;;;65.70;16.77;;;9.50;61.70;;;;;;5023252;28;20128;-73
2021/03/18 08:21:44;;;;;;;57.03;17.38;;;9.60;61.30;;;;;;5025816;28;20515;-73
2021/03/18 08:24:13;;;;;;;54.20;16.33;;;9.70;60.50;;;;;;5025952;28;20371;-74
2021/03/18 08:26:48;;;;;;;55.80;16.23;;;9.80;60.60;;;;;;5024747;28;20353;-72
2021/03/18 08:29:17;;;;;;;66.38;17.17;;;10.00;60.40;;;;;;5022258;28;20026;-75
2021/03/18 08:32:03;;;;;;;61.90;16.92;;;10.10;60.40;;;;;;5024342;28;20104;-73
2021/03/18 08:34:54;;;;;;;69.65;20.38;;;10.30;60.00;;;;;;5025548;28;20025;-72
2021/03/18 08:37:33;;;;;;;62.33;16.10;;;10.50;59.50;;;;;;5023319;28;20101;-74
2021/03/18 08:40:01;;;;;;;50.92;15.65;;;10.60;59.20;;;;;;5023198;28;20082;-72
2021/03/18 08:42:30;;;;;;;59.40;16.00;;;10.70;59.00;;;;;;5023260;28;20060;-74
2021/03/18 08:45:02;;;;;;;63.10;15.48;;;10.80;58.50;;;;;;5024885;28;20033;-72
2021/03/18 08:47:48;;;;;;;52.63;15.23;;;11.00;58.20;;;;;;5018267;28;20033;-72
2021/03/18 08:50:26;;;;;;;54.90;15.57;;;11.20;57.60;;;;;;5015670;28;20037;-72
2021/03/18 08:52:57;;;;;;;63.15;15.80;;;11.30;57.10;;;;;;5015766;28;20478;-72
2021/03/18 08:55:36;;;;;;;63.08;15.15;;;11.40;56.80;;;;;;5015464;28;20037;-72
2021/03/18 08:58:03;;;;;;;59.72;16.33;;;11.40;56.30;;;;;;5015877;28;20373;-72
2021/03/18 09:00:30;;;;;;;57.45;14.65;;;11.50;56.20;;;;;;5015624;28;20041;-72
2021/03/18 09:02:56;;;;;;;66.22;15.80;;;11.50;55.50;;;;;;5015599;28;20530;-73
2021/03/18 09:05:23;;;;;;;59.22;16.33;;;11.60;55.20;;;;;;5015906;28;20057;-74
2021/03/18 09:07:56;;;;;;;47.88;16.30;;;11.60;55.10;;;;;;5014319;28;20030;-73
2021/03/18 09:10:27;;;;;;;62.17;15.52;;;11.70;55.00;;;;;;5014340;28;20455;-73
2021/03/18 09:13:03;;;;;;;57.17;15.43;;;11.70;54.90;;;;;;5007662;28;20543;-74
2021/03/18 09:15:37;;;;;;;67.82;15.70;;;11.80;54.60;;;;;;5006188;28;20152;-72
2021/03/18 09:18:23;;;;;;;56.63;16.45;;;11.70;54.50;;;;;;5015093;28;20037;-73
2021/03/18 09:21:01;;;;;;;64.90;16.60;;;11.80;54.30;;;;;;5009016;28;20365;-73
2021/03/18 09:23:29;;;;;;;61.88;16.35;;;11.80;54.10;;;;;;5030396;28;20424;-73
2021/03/18 09:26:00;;;;;;;69.60;15.32;;;11.80;54.20;;;;;;5014037;28;20156;-74
2021/03/18 09:28:32;;;;;;;64.43;17.15;;;11.80;54.10;;;;;;5007967;28;20042;-73
2021/03/18 09:31:01;;;;;;;58.55;15.43;;;11.90;54.10;;;;;;5005673;28;20046;-74
2021/03/18 09:33:34;;;;;;;61.90;15.13;;;12.00;54.10;;;;;;5014306;28;20057;-72
2021/03/18 09:36:22;;;;;;;65.78;15.57;;;12.00;53.70;;;;;;5008960;28;20118;-75
2021/03/18 09:39:08;;;;;;;64.90;15.18;;;12.10;53.60;;;;;;5013863;28;20076;-72
2021/03/18 09:41:37;;;;;;;47.92;15.32;;;12.20;53.60;;;;;;4993480;28;20069;-73
2021/03/18 09:44:14;;;;;;;65.60;16.23;;;12.20;53.40;;;;;;5007820;28;20102;-72
2021/03/18 09:46:45;;;;;;;62.85;15.45;;;12.30;53.10;;;;;;5013775;28;20037;-73
2021/03/18 09:49:11;;;;;;;50.08;15.55;;;12.30;53.00;;;;;;5014152;28;20037;-71
2021/03/18 09:51:40;;;;;;;66.65;15.15;;;12.30;53.00;;;;;;5013089;28;20120;-71
2021/03/18 09:54:08;;;;;;;50.75;14.57;;;12.30;52.80;;;;;;5014500;28;20376;-72
2021/03/18 10:05:22;;;;;;;58.03;15.68;;;12.40;53.30;;;;;;5014225;28;20041;-73
2021/03/18 10:07:54;;;;;;;60.10;14.57;;;12.40;52.60;;;;;;5009873;28;20036;-73
2021/03/18 10:10:20;;;;;;;46.65;15.60;;;12.40;52.60;;;;;;5009827;28;20034;-72
2021/03/18 10:12:48;;;;;;;58.35;15.85;;;12.50;52.60;;;;;;5012888;28;20113;-72
2021/03/18 10:15:16;;;;;;;51.78;15.15;;;12.50;52.50;;;;;;5007314;28;20084;-73
2021/03/18 10:21:05;;;;;;;68.32;17.17;;;12.70;52.10;;;;;;4996206;28;20494;-73
2021/03/18 10:23:31;;;;;;;57.80;14.95;;;12.80;52.20;;;;;;5007364;28;20026;-73
2021/03/18 10:25:57;;;;;;;70.07;15.18;;;12.90;51.90;;;;;;5014031;28;20137;-72
2021/03/18 10:28:30;;;;;;;51.20;15.18;;;13.00;52.00;;;;;;5013140;28;20034;-72
2021/03/18 10:30:55;;;;;;;50.40;13.70;;;13.20;51.70;;;;;;5008481;28;20419;-72
2021/03/18 10:33:24;;;;;;;62.53;13.73;;;13.30;51.60;;;;;;5013431;28;20105;-73
2021/03/18 10:35:52;;;;;;;60.22;14.48;;;13.50;51.30;;;;;;5014121;28;20026;-71
2021/03/18 10:38:29;;;;;;;64.68;14.57;;;13.60;50.90;;;;;;5014136;28;20037;-72
2021/03/18 10:40:56;;;;;;;58.60;14.95;;;13.90;50.60;;;;;;5014091;28;20029;-72
2021/03/18 10:43:34;;;;;;;45.72;13.88;;;14.30;50.40;;;;;;5012484;28;20129;-71
2021/03/18 10:46:05;;;;;;;65.50;14.35;;;14.70;49.50;;;;;;5013606;28;20105;-74
2021/03/18 10:48:34;;;;;;;61.22;16.00;;;15.20;49.40;;;;;;5013772;28;20113;-72
2021/03/18 10:51:09;;;;;;;54.08;14.00;;;15.80;48.90;;;;;;5013533;28;20148;-75
2021/03/18 10:53:39;;;;;;;57.20;14.68;;;16.40;47.70;;;;;;5019896;28;20373;-72
2021/03/18 10:56:09;;;;;;;43.58;12.38;;;17.10;47.00;;;;;;5013828;28;20054;-73
2021/03/18 10:58:35;;;;;;;53.97;13.52;;;17.80;46.30;;;;;;5013271;28;20057;-73
2021/03/18 11:01:11;;;;;;;52.20;13.63;;;18.40;45.20;;;;;;5013580;28;20022;-72
2021/03/18 11:03:39;;;;;;;48.85;12.98;;;19.10;43.80;;;;;;5013136;28;20369;-73
2021/03/18 11:06:18;;;;;;;44.92;10.80;;;19.80;43.20;;;;;;5013396;28;20029;-72
2021/03/18 11:08:46;;;;;;;43.83;13.68;;;20.50;41.60;;;;;;5013135;28;20083;-73
2021/03/18 11:11:21;;;;;;;32.97;10.88;;;21.10;41.10;;;;;;5013496;28;20037;-73
2021/03/18 11:16:23;;;;;;;38.47;11.20;;;22.20;39.30;;;;;;5009001;28;20488;-73
2021/03/18 11:18:55;;;;;;;30.90;9.60;;;22.70;37.70;;;;;;5019872;28;20116;-73
2021/03/18 11:21:32;;;;;;;28.17;9.20;;;23.10;37.40;;;;;;5021504;28;20079;-72
2021/03/18 11:24:05;;;;;;;37.13;9.60;;;23.60;36.30;;;;;;5032970;28;20030;-73
2021/03/18 11:26:31;;;;;;;36.17;9.57;;;24.10;35.50;;;;;;5032897;28;20033;-72
2021/03/18 11:29:05;;;;;;;34.65;9.98;;;24.50;35.40;;;;;;5032781;28;20438;-73
2021/03/18 11:31:35;;;;;;;37.92;11.25;;;24.90;34.20;;;;;;5032309;28;20036;-72
2021/03/18 11:34:17;;;;;;;42.38;16.27;;;25.30;34.20;;;;;;5033066;28;20037;-72
2021/03/18 11:36:44;;;;;;;68.22;22.45;;;25.80;32.80;;;;;;5032854;28;20522;-73
2021/03/18 11:39:10;;;;;;;46.60;14.85;;;26.30;33.00;;;;;;5025523;28;20048;-72
2021/03/18 11:41:36;;;;;;;38.83;15.40;;;26.70;32.60;;;;;;5021368;28;20049;-73
2021/03/18 11:44:02;;;;;;;42.53;17.15;;;26.90;31.80;;;;;;5022206;28;20204;-72
2021/03/18 11:46:28;;;;;;;30.50;11.25;;;26.80;31.10;;;;;;5017731;28;20026;-74
2021/03/18 11:48:53;;;;;;;32.38;10.35;;;26.00;30.40;;;;;;5012891;28;20452;-72
2021/03/18 11:51:20;;;;;;;26.35;12.23;;;24.50;30.60;;;;;;5012789;28;20385;-72
2021/03/18 11:53:46;;;;;;;30.95;10.88;;;23.10;31.30;;;;;;5012848;28;20452;-73
2021/03/18 11:56:12;;;;;;;21.88;8.38;;;21.80;32.40;;;;;;5013099;28;20478;-74
2021/03/18 11:58:38;;;;;;;27.98;9.20;;;20.80;33.40;;;;;;5011408;28;20080;-73
2021/03/18 12:01:04;;;;;;;31.48;8.65;;;19.90;34.50;;;;;;5011924;28;20034;-73
2021/03/18 12:03:29;;;;;;;29.25;8.52;;;19.30;35.30;;;;;;5012609;28;20092;-73
2021/03/18 12:05:55;;;;;;;32.92;9.48;;;19.10;36.30;;;;;;5012709;28;20490;-73
2021/03/18 12:08:21;;;;;;;29.08;10.40;;;20.00;36.80;;;;;;5013241;28;20033;-72
2021/03/18 12:10:47;;;;;;;31.58;9.73;;;20.90;36.30;;;;;;5020226;28;20044;-72
2021/03/18 12:13:12;;;;;;;41.13;10.65;;;21.80;35.70;;;;;;5020539;28;20037;-73
2021/03/18 12:15:38;;;;;;;45.53;11.98;;;22.90;35.00;;;;;;5020337;28;20022;-74
2021/03/18 12:18:04;;;;;;;33.42;10.07;;;23.70;33.90;;;;;;5020425;28;20026;-74
2021/03/18 12:20:30;;;;;;;51.92;12.02;;;23.80;32.70;;;;;;5021006;28;20054;-72
2021/03/18 12:22:57;;;;;;;35.35;10.43;;;23.20;32.20;;;;;;5018151;28;20112;-73
2021/03/18 12:25:23;;;;;;;25.83;9.52;;;22.80;32.50;;;;;;5017841;28;20025;-73
2021/03/18 12:27:50;;;;;;;30.02;10.13;;;22.90;32.70;;;;;;5021104;28;20473;-73
2021/03/18 12:30:18;;;;;;;47.17;10.18;;;22.90;32.40;;;;;;5022271;28;20033;-73
2021/03/18 12:32:47;;;;;;;44.42;10.55;;;22.60;32.00;;;;;;5017682;28;20054;-73
2021/03/18 12:35:16;;;;;;;42.17;10.90;;;21.90;32.00;;;;;;5020566;28;20033;-73
2021/03/18 12:37:44;;;;;;;41.53;10.48;;;21.10;32.50;;;;;;5017537;28;20030;-72
2021/03/18 12:40:10;;;;;;;44.65;11.50;;;20.60;33.30;;;;;;5020786;28;20029;-72
2021/03/18 12:42:37;;;;;;;37.83;11.13;;;20.80;33.90;;;;;;5023686;28;20025;-73
2021/03/18 12:45:05;;;;;;;37.28;11.38;;;21.20;33.70;;;;;;5020730;28;20523;-73
2021/03/18 12:47:31;;;;;;;42.92;11.32;;;21.50;33.50;;;;;;5022048;28;20127;-73
2021/03/18 12:49:57;;;;;;;47.58;11.98;;;21.50;33.10;;;;;;5025077;28;20084;-72
2021/03/18 12:52:23;;;;;;;44.28;10.50;;;21.00;33.00;;;;;;5024634;28;20021;-72
2021/03/18 12:54:48;;;;;;;41.47;11.40;;;20.50;33.20;;;;;;5024008;28;20413;-73
2021/03/18 12:57:14;;;;;;;51.05;11.65;;;20.00;33.60;;;;;;5023280;28;20091;-72
2021/03/18 12:59:40;;;;;;;42.72;10.82;;;19.70;34.00;;;;;;5022784;28;20480;-73
2021/03/18 13:02:06;;;;;;;51.33;12.90;;;19.40;34.20;;;;;;5024214;28;20021;-73